createdAt,value
2023-01-18T00:00:41.415Z,97564.38
2023-01-18T00:03:13.683Z,97570.63
2023-01-18T00:05:42.344Z,97565.69
2023-01-18T00:08:19.584Z,97557.47
2023-01-18T00:10:47.025Z,97550.59
2023-01-18T00:13:14.290Z,97538.44
2023-01-18T00:15:41.507Z,97555.28
2023-01-18T00:18:08.804Z,97567.38
2023-01-18T00:20:36.028Z,97563.44
2023-01-18T00:23:03.276Z,97562.34
2023-01-18T00:25:31.075Z,97557.19
2023-01-18T00:27:58.596Z,97557.13
2023-01-18T00:30:28.568Z,97560.53
2023-01-18T00:32:58.333Z,97568.50
2023-01-18T00:35:26.143Z,97583.59
2023-01-18T00:37:54.344Z,97587.47
2023-01-18T00:40:22.967Z,97589.03
2023-01-18T00:43:08.867Z,97591.75
2023-01-18T00:45:36.168Z,97591.47
2023-01-18T00:48:03.514Z,97584.44
2023-01-18T00:50:30.819Z,97594.66
2023-01-18T00:53:00.189Z,97581.72
2023-01-18T00:55:28.093Z,97581.50
2023-01-18T00:57:55.395Z,97575.84
2023-01-18T01:00:23.788Z,97584.16
2023-01-18T01:02:51.797Z,97582.28
2023-01-18T01:05:40.502Z,97567.66
2023-01-18T01:08:08.118Z,97537.03
2023-01-18T01:10:35.915Z,97518.16
2023-01-18T01:13:21.931Z,97546.19
2023-01-18T01:16:07.850Z,97532.50
2023-01-18T01:18:53.419Z,97535.88
2023-01-18T01:21:39.110Z,97552.44
2023-01-18T01:24:25.167Z,97570.47
2023-01-18T01:26:52.498Z,97558.34
2023-01-18T01:29:19.733Z,97548.50
2023-01-18T01:31:47.037Z,97544.56
2023-01-18T01:34:14.300Z,97540.53
2023-01-18T01:36:41.524Z,97546.09
2023-01-18T01:39:11.064Z,97544.84
2023-01-18T01:41:38.919Z,97545.09
2023-01-18T01:44:19.563Z,97543.47
2023-01-18T01:46:59.446Z,97533.50
2023-01-18T01:49:34.828Z,97525.44
2023-01-18T01:52:15.455Z,97532.31
2023-01-18T01:54:48.669Z,97535.66
2023-01-18T01:57:50.028Z,97560.69
2023-01-18T02:00:20.952Z,97577.72
2023-01-18T02:02:53.273Z,97576.84
2023-01-18T02:05:20.859Z,97578.53
2023-01-18T02:07:48.390Z,97573.16
2023-01-18T02:10:16.388Z,97570.91
2023-01-18T02:12:46.439Z,97557.16
2023-01-18T02:15:13.776Z,97555.91
2023-01-18T02:17:40.959Z,97553.03
2023-01-18T02:20:37.948Z,97550.63
2023-01-18T02:23:32.233Z,97542.44
2023-01-18T02:26:44.872Z,97545.28
2023-01-18T02:29:20.445Z,97543.84
2023-01-18T02:32:25.303Z,97535.94
2023-01-18T02:35:06.005Z,97533.88
2023-01-18T02:37:33.165Z,97539.50
2023-01-18T02:40:32.676Z,97538.53
2023-01-18T02:43:23.085Z,97518.31
2023-01-18T02:46:09.000Z,97505.13
2023-01-18T02:48:40.389Z,97512.94
2023-01-18T02:51:08.047Z,97498.81
2023-01-18T02:53:42.329Z,97493.19
2023-01-18T02:56:27.955Z,97485.69
2023-01-18T02:59:01.281Z,97480.81
2023-01-18T03:01:48.486Z,97484.56
2023-01-18T03:04:21.811Z,97487.31
2023-01-18T03:06:57.350Z,97483.47
2023-01-18T03:09:27.323Z,97495.97
2023-01-18T03:12:02.489Z,97505.34
2023-01-18T03:14:57.172Z,97507.22
2023-01-18T03:17:40.757Z,97494.28
2023-01-18T03:20:18.027Z,97498.56
2023-01-18T03:23:22.214Z,97501.38
2023-01-18T03:25:51.868Z,97495.16
2023-01-18T03:28:47.258Z,97486.19
2023-01-18T03:31:41.858Z,97502.13
2023-01-18T03:34:19.405Z,97496.44
2023-01-18T03:36:49.165Z,97482.63
2023-01-18T03:39:38.403Z,97474.53
2023-01-18T03:42:37.492Z,97476.22
2023-01-18T03:45:37.953Z,97466.72
2023-01-18T03:48:07.762Z,97458.91
2023-01-18T03:50:52.862Z,97461.59
2023-01-18T03:53:52.957Z,97452.78
2023-01-18T03:56:34.652Z,97455.94
2023-01-18T03:59:04.473Z,97455.34
2023-01-18T04:01:32.322Z,97444.69
2023-01-18T04:03:59.648Z,97442.78
2023-01-18T04:06:27.928Z,97437.97
2023-01-18T04:08:55.435Z,97430.06
2023-01-18T04:11:22.629Z,97433.00
2023-01-18T04:13:49.830Z,97427.84
2023-01-18T04:16:17.184Z,97426.72
2023-01-18T04:18:44.461Z,97419.41
2023-01-18T04:21:11.729Z,97418.88
2023-01-18T04:23:39.001Z,97424.56
2023-01-18T04:26:06.334Z,97417.94
2023-01-18T04:28:34.606Z,97422.28
2023-01-18T04:31:02.059Z,97427.72
2023-01-18T04:33:29.340Z,97430.56
2023-01-18T04:35:56.545Z,97427.28
2023-01-18T04:38:23.933Z,97429.66
2023-01-18T04:40:51.265Z,97427.63
2023-01-18T04:43:18.607Z,97419.38
2023-01-18T04:45:55.710Z,97432.91
2023-01-18T04:48:24.322Z,97436.84
2023-01-18T04:50:52.228Z,97430.59
2023-01-18T04:53:20.045Z,97430.63
2023-01-18T04:55:47.360Z,97434.84
2023-01-18T04:58:15.216Z,97438.56
2023-01-18T05:00:42.868Z,97433.69
2023-01-18T05:03:11.769Z,97428.28
2023-01-18T05:05:39.351Z,97437.06
2023-01-18T05:08:06.555Z,97435.44
2023-01-18T05:10:33.892Z,97449.31
2023-01-18T05:13:01.751Z,97447.25
2023-01-18T05:15:29.212Z,97441.75
2023-01-18T05:17:56.455Z,97432.66
2023-01-18T05:20:23.829Z,97433.06
2023-01-18T05:22:51.095Z,97436.88
2023-01-18T05:25:18.293Z,97435.88
2023-01-18T05:27:45.636Z,97437.81
2023-01-18T05:30:13.991Z,97438.66
2023-01-18T05:32:41.219Z,97444.00
2023-01-18T05:35:08.939Z,97447.09
2023-01-18T05:37:36.223Z,97456.47
2023-01-18T05:40:03.803Z,97479.38
2023-01-18T05:42:31.158Z,97516.03
2023-01-18T05:44:58.353Z,97551.09
2023-01-18T05:47:25.660Z,97592.56
2023-01-18T05:49:52.880Z,97669.03
2023-01-18T05:52:20.113Z,97708.31
2023-01-18T05:54:47.873Z,97712.34
2023-01-18T05:57:15.203Z,97708.63
2023-01-18T05:59:42.394Z,97698.69
2023-01-18T06:02:09.695Z,97700.72
2023-01-18T06:04:37.020Z,97688.47
2023-01-18T06:07:04.339Z,97695.28
2023-01-18T06:09:31.666Z,97681.63
2023-01-18T06:11:58.979Z,97673.28
2023-01-18T06:14:26.227Z,97690.16
2023-01-18T06:16:53.494Z,97709.16
2023-01-18T06:19:20.778Z,97724.06
2023-01-18T06:21:48.105Z,97724.94
2023-01-18T06:24:15.355Z,97728.91
2023-01-18T06:26:42.641Z,97729.59
2023-01-18T06:29:09.926Z,97737.13
2023-01-18T06:31:37.278Z,97730.44
2023-01-18T06:34:09.432Z,97729.88
2023-01-18T06:36:38.474Z,97736.34
2023-01-18T06:39:06.826Z,97732.78
2023-01-18T06:41:34.081Z,97718.47
2023-01-18T06:44:01.494Z,97717.19
2023-01-18T06:46:29.072Z,97746.09
2023-01-18T06:48:56.620Z,97755.09
2023-01-18T06:51:24.210Z,97755.00
2023-01-18T06:53:51.477Z,97749.13
2023-01-18T06:56:18.841Z,97744.59
2023-01-18T06:58:46.103Z,97735.13
2023-01-18T07:01:13.457Z,97739.66
2023-01-18T07:03:40.780Z,97769.25
2023-01-18T07:06:08.043Z,97776.88
2023-01-18T07:08:40.150Z,97804.94
2023-01-18T07:11:09.844Z,97815.19
2023-01-18T07:13:40.212Z,97815.28
2023-01-18T07:16:08.575Z,97814.72
2023-01-18T07:18:35.820Z,97823.66
2023-01-18T07:21:10.096Z,97843.84
2023-01-18T07:23:40.288Z,97873.47
2023-01-18T07:26:10.415Z,97869.03
2023-01-18T07:28:38.207Z,97893.59
2023-01-18T07:31:08.092Z,97883.72
2023-01-18T07:33:36.047Z,97906.47
2023-01-18T07:36:06.327Z,97902.47
2023-01-18T07:38:34.221Z,97904.50
2023-01-18T07:41:03.418Z,97879.63
2023-01-18T07:43:33.001Z,97893.06
2023-01-18T07:46:01.740Z,97875.25
2023-01-18T07:48:29.329Z,97888.75
2023-01-18T07:51:07.705Z,97870.16
2023-01-18T07:53:36.566Z,97898.25
2023-01-18T07:56:09.476Z,97897.19
2023-01-18T07:58:37.555Z,97915.09
2023-01-18T08:01:07.313Z,97928.13
2023-01-18T08:03:36.388Z,97938.44
2023-01-18T08:06:05.765Z,97935.81
2023-01-18T08:08:34.823Z,97973.47
2023-01-18T08:11:03.948Z,97986.38
2023-01-18T08:13:31.334Z,97987.88
2023-01-18T08:16:00.602Z,97996.59
2023-01-18T08:18:28.522Z,97998.66
2023-01-18T08:20:56.207Z,98011.16
2023-01-18T08:23:23.848Z,98032.72
2023-01-18T08:25:51.312Z,98038.97
2023-01-18T08:28:19.328Z,98029.97
2023-01-18T08:30:48.404Z,98034.47
2023-01-18T08:33:15.807Z,98042.31
2023-01-18T08:35:47.809Z,98060.22
2023-01-18T08:38:16.239Z,98058.44
2023-01-18T08:40:43.618Z,98056.88
2023-01-18T08:43:11.914Z,98055.47
2023-01-18T08:45:39.164Z,98056.53
2023-01-18T08:48:10.021Z,98067.38
2023-01-18T08:50:39.271Z,98078.88
2023-01-18T08:53:06.568Z,98108.84
2023-01-18T08:55:35.558Z,98112.78
2023-01-18T08:58:02.786Z,98115.00
2023-01-18T09:00:30.361Z,98119.72
2023-01-18T09:02:58.542Z,98111.63
2023-01-18T09:05:27.195Z,98122.56
2023-01-18T09:07:55.785Z,98132.88
2023-01-18T09:10:23.484Z,98143.38
2023-01-18T09:12:52.933Z,98151.75
2023-01-18T09:15:21.537Z,98164.69
2023-01-18T09:17:48.892Z,98184.25
2023-01-18T09:20:18.732Z,98181.53
2023-01-18T09:22:48.116Z,98195.56
2023-01-18T09:25:18.184Z,98195.38
2023-01-18T09:27:46.685Z,98211.22
2023-01-18T09:30:16.136Z,98209.94
2023-01-18T09:32:43.422Z,98217.44
2023-01-18T09:35:10.712Z,98212.53
2023-01-18T09:37:37.986Z,98216.50
2023-01-18T09:40:05.778Z,98223.47
2023-01-18T09:42:41.205Z,98235.63
2023-01-18T09:45:23.887Z,98243.34
2023-01-18T09:48:00.051Z,98252.75
2023-01-18T09:50:27.681Z,98254.28
2023-01-18T09:53:04.155Z,98261.09
2023-01-18T09:56:18.496Z,98270.03
2023-01-18T09:58:55.572Z,98278.72
2023-01-18T10:01:26.745Z,98284.25
2023-01-18T10:04:33.011Z,98284.69
2023-01-18T10:07:03.573Z,98289.97
2023-01-18T10:09:40.615Z,98296.75
2023-01-18T10:12:34.311Z,98320.13
2023-01-18T10:15:17.566Z,98318.47
2023-01-18T10:17:45.910Z,98322.59
2023-01-18T10:20:42.633Z,98323.69
2023-01-18T10:23:23.408Z,98316.91
2023-01-18T10:25:56.744Z,98324.06
2023-01-18T10:28:42.250Z,98321.81
2023-01-18T10:31:17.063Z,98316.75
2023-01-18T10:33:46.110Z,98314.34
2023-01-18T10:36:26.561Z,98329.13
2023-01-18T10:38:55.540Z,98336.19
2023-01-18T10:41:31.665Z,98335.13
2023-01-18T10:43:59.018Z,98338.31
2023-01-18T10:46:26.454Z,98335.53
2023-01-18T10:48:59.448Z,98340.78
2023-01-18T10:51:37.789Z,98341.28
2023-01-18T10:54:26.907Z,98351.31
2023-01-18T10:57:04.760Z,98365.22
2023-01-18T10:59:40.058Z,98375.84
2023-01-18T11:02:21.112Z,98379.38
2023-01-18T11:04:56.872Z,98371.84
2023-01-18T11:07:26.534Z,98372.06
2023-01-18T11:09:59.285Z,98389.78
2023-01-18T11:12:42.436Z,98384.09
2023-01-18T11:15:15.684Z,98384.19
2023-01-18T11:17:44.640Z,98375.63
2023-01-18T11:20:40.601Z,98379.53
2023-01-18T11:23:10.849Z,98383.81
2023-01-18T11:25:40.659Z,98389.41
2023-01-18T11:28:30.850Z,98385.53
2023-01-18T11:31:13.822Z,98381.66
2023-01-18T11:33:51.587Z,98386.25
2023-01-18T11:36:21.152Z,98380.50
2023-01-18T11:38:48.639Z,98392.09
2023-01-18T11:41:20.338Z,98398.66
2023-01-18T11:44:19.024Z,98403.22
2023-01-18T11:46:52.194Z,98406.78
2023-01-18T11:49:53.491Z,98400.56
2023-01-18T11:52:46.807Z,98397.44
2023-01-18T11:55:23.564Z,98398.72
2023-01-18T11:57:52.831Z,98402.16
2023-01-18T12:00:28.470Z,98401.75
2023-01-18T12:03:21.206Z,98411.09
2023-01-18T12:06:00.153Z,98404.72
2023-01-18T12:08:39.493Z,98416.59
2023-01-18T12:11:34.832Z,98411.16
2023-01-18T12:14:35.147Z,98413.81
2023-01-18T12:17:45.976Z,98412.66
2023-01-18T12:20:58.429Z,98409.16
2023-01-18T12:23:42.391Z,98416.97
2023-01-18T12:26:47.266Z,98416.66
2023-01-18T12:29:54.620Z,98419.28
2023-01-18T12:32:48.171Z,98421.59
2023-01-18T12:35:37.609Z,98430.25
2023-01-18T12:38:29.019Z,98422.09
2023-01-18T12:41:14.917Z,98431.53
2023-01-18T12:43:57.604Z,98432.66
2023-01-18T12:46:36.637Z,98430.94
2023-01-18T12:49:19.179Z,98419.94
2023-01-18T12:51:50.981Z,98428.00
2023-01-18T12:54:45.984Z,98439.03
2023-01-18T12:57:15.158Z,98436.72
2023-01-18T12:59:57.918Z,98427.47
2023-01-18T13:02:55.825Z,98416.34
2023-01-18T13:05:52.570Z,98420.88
2023-01-18T13:08:31.941Z,98421.78
2023-01-18T13:11:23.985Z,98421.31
2023-01-18T13:14:15.501Z,98433.09
2023-01-18T13:17:09.224Z,98446.50
2023-01-18T13:19:43.195Z,98453.94
2023-01-18T13:22:28.933Z,98459.38
2023-01-18T13:25:14.925Z,98467.72
2023-01-18T13:28:03.905Z,98475.16
2023-01-18T13:30:35.115Z,98476.63
2023-01-18T13:33:12.694Z,98497.19
2023-01-18T13:35:51.458Z,98501.47
2023-01-18T13:38:27.500Z,98505.47
2023-01-18T13:41:03.913Z,98507.50
2023-01-18T13:43:37.068Z,98500.94
2023-01-18T13:46:07.423Z,98504.38
2023-01-18T13:48:46.608Z,98499.50
2023-01-18T13:51:42.050Z,98495.97
2023-01-18T13:54:18.189Z,98495.09
2023-01-18T13:57:09.706Z,98498.09
2023-01-18T13:59:40.743Z,98493.81
2023-01-18T14:02:29.502Z,98502.69
2023-01-18T14:04:59.751Z,98493.03
2023-01-18T14:07:27.938Z,98503.50
2023-01-18T14:10:03.461Z,98504.94
2023-01-18T14:12:50.804Z,98503.38
2023-01-18T14:15:24.954Z,98501.38
2023-01-18T14:17:58.539Z,98503.69
2023-01-18T14:20:51.855Z,98495.81
2023-01-18T14:23:46.557Z,98492.53
2023-01-18T14:26:18.412Z,98489.91
2023-01-18T14:28:54.721Z,98491.03
2023-01-18T14:31:30.537Z,98500.28
2023-01-18T14:33:57.815Z,98522.63
2023-01-18T14:36:27.673Z,98525.06
2023-01-18T14:39:12.806Z,98528.25
2023-01-18T14:41:50.691Z,98524.28
2023-01-18T14:44:22.478Z,98525.69
2023-01-18T14:46:59.510Z,98525.63
2023-01-18T14:49:35.293Z,98521.88
2023-01-18T14:52:04.278Z,98523.75
2023-01-18T18:00:08.330Z,98590.59
2023-01-18T18:02:35.690Z,98589.13
2023-01-18T18:05:04.110Z,98581.34
2023-01-18T18:07:31.465Z,98586.03
2023-01-18T18:10:01.217Z,98588.50
2023-01-18T18:12:29.480Z,98580.78
2023-01-18T18:14:56.698Z,98573.81
2023-01-18T18:17:26.478Z,98579.25
2023-01-18T18:19:53.789Z,98571.56
2023-01-18T18:22:21.387Z,98572.63
2023-01-18T18:24:49.086Z,98572.34
2023-01-18T18:27:17.552Z,98568.75
2023-01-18T18:29:44.951Z,98564.97
2023-01-18T18:32:18.314Z,98562.13
2023-01-18T18:34:45.650Z,98558.38
2023-01-18T18:37:15.114Z,98559.25
2023-01-18T18:39:42.507Z,98560.84
2023-01-18T18:42:09.776Z,98554.06
2023-01-18T18:44:37.001Z,98548.88
2023-01-18T18:47:06.716Z,98553.13
2023-01-18T18:49:33.999Z,98552.25
2023-01-18T18:52:02.386Z,98543.75
2023-01-18T18:54:29.699Z,98544.00
2023-01-18T18:56:57.060Z,98551.34
2023-01-18T18:59:24.567Z,98561.69
2023-01-18T19:01:52.423Z,98554.19
2023-01-18T19:04:20.970Z,98558.03
2023-01-18T19:06:48.272Z,98551.75
2023-01-18T19:09:15.571Z,98547.03
2023-01-18T19:11:50.560Z,98543.56
2023-01-18T19:14:25.700Z,98546.41
2023-01-18T19:16:54.106Z,98538.56
2023-01-18T19:19:21.481Z,98555.22
2023-01-18T19:21:49.404Z,98560.13
2023-01-18T19:24:16.766Z,98557.38
2023-01-18T19:26:45.044Z,98547.09
2023-01-18T19:29:12.786Z,98538.97
2023-01-18T19:31:40.311Z,98545.53
2023-01-18T19:34:07.679Z,98555.59
2023-01-18T19:36:35.353Z,98562.25
2023-01-18T19:39:07.009Z,98567.03
2023-01-18T19:41:36.584Z,98573.78
2023-01-18T19:44:04.162Z,98569.63
2023-01-18T19:46:31.560Z,98566.94
2023-01-18T19:48:59.444Z,98583.75
2023-01-18T19:51:27.797Z,98576.75
2023-01-18T19:53:57.181Z,98580.44
2023-01-18T19:56:25.697Z,98581.31
2023-01-18T19:58:53.111Z,98573.03
2023-01-18T20:01:35.079Z,98583.25
2023-01-18T20:04:05.823Z,98573.66
2023-01-18T20:06:33.756Z,98565.44
2023-01-18T20:09:02.698Z,98551.28
2023-01-18T20:11:29.982Z,98554.38
2023-01-18T20:13:57.335Z,98542.53
2023-01-18T20:16:24.719Z,98534.19
2023-01-18T20:18:52.934Z,98538.03
2023-01-18T20:21:20.191Z,98520.13
2023-01-18T20:23:47.685Z,98512.00
2023-01-18T20:26:20.059Z,98507.59
2023-01-18T20:28:55.976Z,98514.72
2023-01-18T20:31:23.340Z,98519.13
2023-01-18T20:33:50.633Z,98509.81
2023-01-18T20:36:18.045Z,98492.34
2023-01-18T20:38:45.343Z,98493.34
2023-01-18T20:41:12.817Z,98508.44
2023-01-18T20:43:40.523Z,98515.47
2023-01-18T20:46:10.093Z,98519.78
2023-01-18T20:48:38.345Z,98508.22
2023-01-18T20:51:07.563Z,98500.50
2023-01-18T20:53:35.803Z,98485.00
2023-01-18T20:56:11.981Z,98481.09
2023-01-18T20:58:51.423Z,98483.41
2023-01-18T21:01:19.314Z,98482.06
2023-01-18T21:03:52.139Z,98475.56
2023-01-18T21:06:19.366Z,98477.28
2023-01-18T21:08:46.909Z,98476.16
2023-01-18T21:11:22.847Z,98471.38
2023-01-18T21:13:50.395Z,98462.56
2023-01-18T21:16:18.269Z,98437.47
2023-01-18T21:18:45.749Z,98427.50
2023-01-18T21:21:13.409Z,98434.84
2023-01-18T21:23:41.779Z,98441.63
2023-01-18T21:26:12.085Z,98443.59
2023-01-18T21:28:40.372Z,98450.13
2023-01-18T21:31:08.334Z,98444.09
2023-01-18T21:33:36.160Z,98447.56
2023-01-18T21:36:13.919Z,98436.00
2023-01-18T21:38:41.902Z,98432.34
2023-01-18T21:41:28.805Z,98424.56
2023-01-18T21:44:14.967Z,98422.34
2023-01-18T21:46:51.272Z,98424.16
2023-01-18T21:52:46.193Z,98433.72
2023-01-18T21:55:15.545Z,98443.78
2023-01-18T21:57:46.350Z,98449.19
2023-01-18T22:00:14.689Z,98452.84
2023-01-18T22:02:42.595Z,98460.44
2023-01-18T22:05:13.462Z,98446.53
2023-01-18T22:07:41.114Z,98435.22
2023-01-18T22:10:09.478Z,98420.56
2023-01-18T22:12:39.198Z,98417.47
2023-01-18T22:15:07.237Z,98411.97
2023-01-18T22:17:34.734Z,98406.56
2023-01-18T22:20:02.503Z,98406.38
2023-01-18T22:22:30.927Z,98393.75
2023-01-18T22:25:02.242Z,98396.78
2023-01-18T22:27:30.441Z,98389.81
2023-01-18T22:30:00.041Z,98389.28
2023-01-18T22:32:27.745Z,98385.59
2023-01-18T22:34:55.572Z,98383.13
2023-01-18T22:37:23.810Z,98374.69
2023-01-18T22:39:51.812Z,98371.13
2023-01-18T22:42:19.811Z,98373.56
2023-01-18T22:44:48.132Z,98376.88
2023-01-18T22:47:15.932Z,98382.63
2023-01-18T22:49:43.334Z,98388.03
2023-01-18T22:52:10.530Z,98378.94
2023-01-18T22:54:37.853Z,98367.72
2023-01-18T22:57:05.303Z,98369.59
2023-01-18T22:59:32.614Z,98372.91
2023-01-18T23:01:59.895Z,98376.19
2023-01-18T23:04:35.650Z,98385.75
2023-01-18T23:07:04.699Z,98381.22
2023-01-18T23:09:32.143Z,98386.47
2023-01-18T23:11:59.393Z,98390.88
2023-01-18T23:14:45.212Z,98392.88
2023-01-18T23:17:32.050Z,98388.72
2023-01-18T23:19:59.372Z,98384.69
2023-01-18T23:22:26.773Z,98375.13
2023-01-18T23:24:54.681Z,98383.31
2023-01-18T23:27:21.978Z,98389.13
2023-01-18T23:29:55.532Z,98381.09
2023-01-18T23:32:26.725Z,98390.72
2023-01-18T23:34:55.456Z,98392.22
2023-01-18T23:37:23.625Z,98385.03
2023-01-18T23:40:09.545Z,98375.59
2023-01-18T23:42:55.993Z,98373.88
2023-01-18T23:45:42.055Z,98368.00
2023-01-18T23:48:35.052Z,98368.16
2023-01-18T23:51:21.655Z,98367.66
2023-01-18T23:54:07.470Z,98362.91
2023-01-18T23:56:34.797Z,98383.66
2023-01-18T23:59:02.594Z,98379.97
